sensor_id;sensor_type;location;lat;lon;timestamp;temperature;humidity
10443;DHT22;5269;51.146;16.986;2023-08-08T00:00:45;14.70;99.90
10443;DHT22;5269;51.146;16.986;2023-08-08T00:03:15;14.60;1.00
10443;DHT22;5269;51.146;16.986;2023-08-08T00:05:44;14.70;1.00
10443;DHT22;5269;51.146;16.986;2023-08-08T00:08:13;14.70;1.00
10443;DHT22;5269;51.146;16.986;2023-08-08T00:10:46;14.80;3.40
10443;DHT22;5269;51.146;16.986;2023-08-08T00:13:15;14.80;1.00
10443;DHT22;5269;51.146;16.986;2023-08-08T00:15:44;14.80;1.00
10443;DHT22;5269;51.146;16.986;2023-08-08T00:18:14;14.80;1.00
10443;DHT22;5269;51.146;16.986;2023-08-08T00:20:44;14.90;1.00
10443;DHT22;5269;51.146;16.986;2023-08-08T00:23:14;14.90;1.00
10443;DHT22;5269;51.146;16.986;2023-08-08T00:25:47;14.90;1.00
10443;DHT22;5269;51.146;16.986;2023-08-08T00:28:25;14.90;99.90
10443;DHT22;5269;51.146;16.986;2023-08-08T00:30:56;14.90;1.00
10443;DHT22;5269;51.146;16.986;2023-08-08T00:33:26;14.90;99.90
10443;DHT22;5269;51.146;16.986;2023-08-08T00:35:55;14.90;1.00
10443;DHT22;5269;51.146;16.986;2023-08-08T00:38:24;14.90;99.90
10443;DHT22;5269;51.146;16.986;2023-08-08T00:40:57;14.90;99.90
10443;DHT22;5269;51.146;16.986;2023-08-08T00:43:36;14.90;99.90
10443;DHT22;5269;51.146;16.986;2023-08-08T00:46:04;14.90;99.90
10443;DHT22;5269;51.146;16.986;2023-08-08T00:48:35;14.90;99.90
10443;DHT22;5269;51.146;16.986;2023-08-08T00:51:06;14.90;91.60
10443;DHT22;5269;51.146;16.986;2023-08-08T00:53:35;14.80;99.90
10443;DHT22;5269;51.146;16.986;2023-08-08T00:56:18;14.80;99.90
10443;DHT22;5269;51.146;16.986;2023-08-08T00:58:55;14.70;99.90
10443;DHT22;5269;51.146;16.986;2023-08-08T01:01:26;14.70;99.90
10443;DHT22;5269;51.146;16.986;2023-08-08T01:03:56;14.60;99.90
10443;DHT22;5269;51.146;16.986;2023-08-08T01:06:35;14.60;99.90
10443;DHT22;5269;51.146;16.986;2023-08-08T01:09:28;14.60;1.00
10443;DHT22;5269;51.146;16.986;2023-08-08T01:12:16;14.50;1.00
10443;DHT22;5269;51.146;16.986;2023-08-08T01:14:46;14.40;1.00
10443;DHT22;5269;51.146;16.986;2023-08-08T01:17:23;14.40;1.00
10443;DHT22;5269;51.146;16.986;2023-08-08T01:19:57;14.40;1.00
10443;DHT22;5269;51.146;16.986;2023-08-08T01:22:37;14.30;1.00
10443;DHT22;5269;51.146;16.986;2023-08-08T01:25:15;14.30;1.00
10443;DHT22;5269;51.146;16.986;2023-08-08T01:27:46;14.20;54.10
10443;DHT22;5269;51.146;16.986;2023-08-08T01:30:15;14.20;99.90
10443;DHT22;5269;51.146;16.986;2023-08-08T01:32:45;14.10;99.90
10443;DHT22;5269;51.146;16.986;2023-08-08T01:35:14;14.10;99.90
10443;DHT22;5269;51.146;16.986;2023-08-08T01:37:56;14.00;99.90
10443;DHT22;5269;51.146;16.986;2023-08-08T01:40:44;14.00;99.90
10443;DHT22;5269;51.146;16.986;2023-08-08T01:43:15;14.00;99.90
10443;DHT22;5269;51.146;16.986;2023-08-08T01:45:46;13.90;99.90
10443;DHT22;5269;51.146;16.986;2023-08-08T01:48:17;13.90;1.00
10443;DHT22;5269;51.146;16.986;2023-08-08T01:50:45;13.80;1.00
10443;DHT22;5269;51.146;16.986;2023-08-08T01:53:14;13.80;1.00
10443;DHT22;5269;51.146;16.986;2023-08-08T01:55:45;13.70;1.00
10443;DHT22;5269;51.146;16.986;2023-08-08T01:58:14;13.50;1.00
10443;DHT22;5269;51.146;16.986;2023-08-08T02:00:47;13.60;99.90
10443;DHT22;5269;51.146;16.986;2023-08-08T02:03:25;13.60;1.00
10443;DHT22;5269;51.146;16.986;2023-08-08T02:05:54;13.60;1.00
10443;DHT22;5269;51.146;16.986;2023-08-08T02:08:27;13.60;1.00
10443;DHT22;5269;51.146;16.986;2023-08-08T02:10:55;13.50;99.90
10443;DHT22;5269;51.146;16.986;2023-08-08T02:13:25;13.50;99.90
10443;DHT22;5269;51.146;16.986;2023-08-08T02:15:55;13.50;99.90
10443;DHT22;5269;51.146;16.986;2023-08-08T02:18:24;13.50;99.90
10443;DHT22;5269;51.146;16.986;2023-08-08T02:20:57;13.50;1.00
10443;DHT22;5269;51.146;16.986;2023-08-08T02:23:35;13.40;99.90
10443;DHT22;5269;51.146;16.986;2023-08-08T02:26:06;13.40;99.90
10443;DHT22;5269;51.146;16.986;2023-08-08T02:28:35;13.40;1.00
10443;DHT22;5269;51.146;16.986;2023-08-08T02:31:04;13.40;1.00
10443;DHT22;5269;51.146;16.986;2023-08-08T02:33:34;13.30;1.00
10443;DHT22;5269;51.146;16.986;2023-08-08T02:36:04;13.30;1.00
10443;DHT22;5269;51.146;16.986;2023-08-08T02:38:37;13.30;1.00
10443;DHT22;5269;51.146;16.986;2023-08-08T02:41:16;13.30;99.90
10443;DHT22;5269;51.146;16.986;2023-08-08T02:43:46;13.30;99.90
10443;DHT22;5269;51.146;16.986;2023-08-08T02:46:15;13.20;99.90
10443;DHT22;5269;51.146;16.986;2023-08-08T02:48:44;13.20;1.00
10443;DHT22;5269;51.146;16.986;2023-08-08T02:51:15;13.20;1.00
10443;DHT22;5269;51.146;16.986;2023-08-08T02:53:48;13.10;1.00
10443;DHT22;5269;51.146;16.986;2023-08-08T02:56:34;13.10;1.00
10443;DHT22;5269;51.146;16.986;2023-08-08T02:59:07;13.10;1.00
10443;DHT22;5269;51.146;16.986;2023-08-08T03:01:45;13.10;1.00
10443;DHT22;5269;51.146;16.986;2023-08-08T03:04:15;13.10;21.40
10443;DHT22;5269;51.146;16.986;2023-08-08T03:06:45;13.00;99.90
10443;DHT22;5269;51.146;16.986;2023-08-08T03:09:15;13.00;99.90
10443;DHT22;5269;51.146;16.986;2023-08-08T03:11:46;13.00;99.90
10443;DHT22;5269;51.146;16.986;2023-08-08T03:14:14;12.90;99.90
10443;DHT22;5269;51.146;16.986;2023-08-08T03:16:47;12.90;99.90
10443;DHT22;5269;51.146;16.986;2023-08-08T03:19:25;12.90;99.90
10443;DHT22;5269;51.146;16.986;2023-08-08T03:21:55;12.90;1.00
10443;DHT22;5269;51.146;16.986;2023-08-08T03:24:28;12.90;99.90
10443;DHT22;5269;51.146;16.986;2023-08-08T03:27:10;12.90;1.00
10443;DHT22;5269;51.146;16.986;2023-08-08T03:29:46;12.90;1.00
10443;DHT22;5269;51.146;16.986;2023-08-08T03:32:16;12.90;1.00
10443;DHT22;5269;51.146;16.986;2023-08-08T03:34:46;13.00;1.00
10443;DHT22;5269;51.146;16.986;2023-08-08T03:37:25;12.90;1.00
10443;DHT22;5269;51.146;16.986;2023-08-08T03:39:58;12.90;1.00
10443;DHT22;5269;51.146;16.986;2023-08-08T03:42:35;12.90;1.00
10443;DHT22;5269;51.146;16.986;2023-08-08T03:45:05;13.00;1.00
10443;DHT22;5269;51.146;16.986;2023-08-08T03:47:34;12.90;1.00
10443;DHT22;5269;51.146;16.986;2023-08-08T03:50:06;13.00;99.90
10443;DHT22;5269;51.146;16.986;2023-08-08T03:52:34;13.00;1.00
10443;DHT22;5269;51.146;16.986;2023-08-08T03:55:05;13.00;99.90
10443;DHT22;5269;51.146;16.986;2023-08-08T03:57:34;13.00;99.90
10443;DHT22;5269;51.146;16.986;2023-08-08T04:00:06;13.00;99.90
10443;DHT22;5269;51.146;16.986;2023-08-08T04:02:34;13.00;99.90
10443;DHT22;5269;51.146;16.986;2023-08-08T04:05:05;13.00;99.90
10443;DHT22;5269;51.146;16.986;2023-08-08T04:07:38;13.00;99.90
10443;DHT22;5269;51.146;16.986;2023-08-08T04:10:18;13.00;99.90
10443;DHT22;5269;51.146;16.986;2023-08-08T04:12:56;13.00;99.90
10443;DHT22;5269;51.146;16.986;2023-08-08T04:15:28;13.00;99.90
10443;DHT22;5269;51.146;16.986;2023-08-08T04:18:07;13.00;99.90
10443;DHT22;5269;51.146;16.986;2023-08-08T04:20:45;13.00;1.00
10443;DHT22;5269;51.146;16.986;2023-08-08T04:23:16;13.10;99.90
10443;DHT22;5269;51.146;16.986;2023-08-08T04:25:47;13.10;99.90
10443;DHT22;5269;51.146;16.986;2023-08-08T04:28:17;13.20;95.00
10443;DHT22;5269;51.146;16.986;2023-08-08T04:30:48;13.20;1.00
10443;DHT22;5269;51.146;16.986;2023-08-08T04:33:27;13.30;1.00
10443;DHT22;5269;51.146;16.986;2023-08-08T04:35:56;13.40;1.00
10443;DHT22;5269;51.146;16.986;2023-08-08T04:38:26;13.40;99.90
10443;DHT22;5269;51.146;16.986;2023-08-08T04:40:56;13.50;99.90
10443;DHT22;5269;51.146;16.986;2023-08-08T04:43:25;13.60;40.20
10443;DHT22;5269;51.146;16.986;2023-08-08T04:45:57;13.60;1.00
10443;DHT22;5269;51.146;16.986;2023-08-08T04:48:36;13.70;52.30
10443;DHT22;5269;51.146;16.986;2023-08-08T04:51:05;13.80;1.00
10443;DHT22;5269;51.146;16.986;2023-08-08T04:53:34;13.80;1.00
10443;DHT22;5269;51.146;16.986;2023-08-08T04:56:07;13.90;1.00
10443;DHT22;5269;51.146;16.986;2023-08-08T04:58:39;13.90;1.00
10443;DHT22;5269;51.146;16.986;2023-08-08T05:01:28;14.00;1.00
10443;DHT22;5269;51.146;16.986;2023-08-08T05:04:04;14.00;99.90
10443;DHT22;5269;51.146;16.986;2023-08-08T05:06:38;14.00;1.00
10443;DHT22;5269;51.146;16.986;2023-08-08T05:09:15;14.10;1.00
10443;DHT22;5269;51.146;16.986;2023-08-08T05:11:48;14.10;99.90
10443;DHT22;5269;51.146;16.986;2023-08-08T05:14:25;14.30;99.90
10443;DHT22;5269;51.146;16.986;2023-08-08T05:16:57;14.30;99.90
10443;DHT22;5269;51.146;16.986;2023-08-08T05:19:26;14.40;99.90
10443;DHT22;5269;51.146;16.986;2023-08-08T05:21:56;14.40;99.90
10443;DHT22;5269;51.146;16.986;2023-08-08T05:24:27;14.50;99.90
10443;DHT22;5269;51.146;16.986;2023-08-08T05:26:55;14.50;99.90
10443;DHT22;5269;51.146;16.986;2023-08-08T05:29:25;14.50;99.90
10443;DHT22;5269;51.146;16.986;2023-08-08T05:31:58;14.40;99.90
10443;DHT22;5269;51.146;16.986;2023-08-08T05:34:38;14.30;99.90
10443;DHT22;5269;51.146;16.986;2023-08-08T05:37:15;14.30;1.00
10443;DHT22;5269;51.146;16.986;2023-08-08T05:39:44;14.50;99.90
10443;DHT22;5269;51.146;16.986;2023-08-08T05:42:15;14.60;99.90
10443;DHT22;5269;51.146;16.986;2023-08-08T05:44:44;14.80;99.90
10443;DHT22;5269;51.146;16.986;2023-08-08T05:47:16;14.80;1.00
10443;DHT22;5269;51.146;16.986;2023-08-08T05:49:46;15.10;1.00
10443;DHT22;5269;51.146;16.986;2023-08-08T05:52:14;15.30;1.00
10443;DHT22;5269;51.146;16.986;2023-08-08T05:54:47;15.40;99.90
10443;DHT22;5269;51.146;16.986;2023-08-08T05:57:14;15.30;99.90
10443;DHT22;5269;51.146;16.986;2023-08-08T05:59:44;15.30;99.90
10443;DHT22;5269;51.146;16.986;2023-08-08T06:02:18;15.30;99.90
10443;DHT22;5269;51.146;16.986;2023-08-08T06:04:56;15.20;99.90
10443;DHT22;5269;51.146;16.986;2023-08-08T06:07:25;15.30;19.40
10443;DHT22;5269;51.146;16.986;2023-08-08T06:09:58;15.30;1.80
10443;DHT22;5269;51.146;16.986;2023-08-08T06:12:37;15.40;1.00
10443;DHT22;5269;51.146;16.986;2023-08-08T06:19:08;15.60;1.00
10443;DHT22;5269;51.146;16.986;2023-08-08T06:21:48;15.60;1.00
10443;DHT22;5269;51.146;16.986;2023-08-08T06:24:25;15.70;1.00
10443;DHT22;5269;51.146;16.986;2023-08-08T06:27:06;15.80;1.00
10443;DHT22;5269;51.146;16.986;2023-08-08T06:29:47;16.00;1.00
10443;DHT22;5269;51.146;16.986;2023-08-08T06:32:27;16.00;1.00
10443;DHT22;5269;51.146;16.986;2023-08-08T06:34:58;16.00;1.00
10443;DHT22;5269;51.146;16.986;2023-08-08T06:43:57;15.80;99.90
10443;DHT22;5269;51.146;16.986;2023-08-08T06:46:28;15.80;1.00
10443;DHT22;5269;51.146;16.986;2023-08-08T06:49:09;15.90;69.10
10443;DHT22;5269;51.146;16.986;2023-08-08T06:51:47;15.80;99.90
10443;DHT22;5269;51.146;16.986;2023-08-08T06:54:16;16.00;99.90
10443;DHT22;5269;51.146;16.986;2023-08-08T06:56:46;16.00;1.00
10443;DHT22;5269;51.146;16.986;2023-08-08T06:59:16;16.10;1.00
10443;DHT22;5269;51.146;16.986;2023-08-08T07:05:06;16.30;1.00
10443;DHT22;5269;51.146;16.986;2023-08-08T07:07:57;16.30;1.00
10443;DHT22;5269;51.146;16.986;2023-08-08T07:13:26;16.30;1.00
10443;DHT22;5269;51.146;16.986;2023-08-08T07:15:56;16.40;1.00
10443;DHT22;5269;51.146;16.986;2023-08-08T07:18:26;16.50;1.00
10443;DHT22;5269;51.146;16.986;2023-08-08T07:20:56;16.60;1.00
10443;DHT22;5269;51.146;16.986;2023-08-08T07:23:26;16.60;1.00
10443;DHT22;5269;51.146;16.986;2023-08-08T07:25:59;16.50;1.00
10443;DHT22;5269;51.146;16.986;2023-08-08T07:28:58;16.50;1.00
10443;DHT22;5269;51.146;16.986;2023-08-08T07:38:17;16.50;1.00
10443;DHT22;5269;51.146;16.986;2023-08-08T07:41:05;16.50;1.00
10443;DHT22;5269;51.146;16.986;2023-08-08T07:43:38;16.50;1.00
10443;DHT22;5269;51.146;16.986;2023-08-08T07:46:17;16.50;1.00
10443;DHT22;5269;51.146;16.986;2023-08-08T07:48:48;16.60;1.00
10443;DHT22;5269;51.146;16.986;2023-08-08T07:51:49;16.90;1.00
10443;DHT22;5269;51.146;16.986;2023-08-08T07:54:26;17.10;99.90
10443;DHT22;5269;51.146;16.986;2023-08-08T07:56:57;17.40;99.90
10443;DHT22;5269;51.146;16.986;2023-08-08T07:59:36;17.30;99.90
10443;DHT22;5269;51.146;16.986;2023-08-08T08:02:05;17.50;99.90
10443;DHT22;5269;51.146;16.986;2023-08-08T08:04:39;17.40;99.90
10443;DHT22;5269;51.146;16.986;2023-08-08T08:07:29;17.40;99.90
10443;DHT22;5269;51.146;16.986;2023-08-08T08:10:27;17.30;99.90
10443;DHT22;5269;51.146;16.986;2023-08-08T08:12:59;17.30;99.90
10443;DHT22;5269;51.146;16.986;2023-08-08T08:15:36;17.60;99.90
10443;DHT22;5269;51.146;16.986;2023-08-08T08:18:06;17.90;99.90
10443;DHT22;5269;51.146;16.986;2023-08-08T08:20:35;17.90;99.90
10443;DHT22;5269;51.146;16.986;2023-08-08T08:23:08;18.10;99.90
10443;DHT22;5269;51.146;16.986;2023-08-08T08:25:45;18.00;99.90
10443;DHT22;5269;51.146;16.986;2023-08-08T08:28:16;17.90;99.90
10443;DHT22;5269;51.146;16.986;2023-08-08T08:30:46;17.60;99.90
10443;DHT22;5269;51.146;16.986;2023-08-08T08:33:16;17.60;99.90
10443;DHT22;5269;51.146;16.986;2023-08-08T08:35:46;17.50;99.90
10443;DHT22;5269;51.146;16.986;2023-08-08T08:38:16;17.60;1.00
10443;DHT22;5269;51.146;16.986;2023-08-08T08:40:46;17.70;1.00
10443;DHT22;5269;51.146;16.986;2023-08-08T08:43:18;17.80;99.90
10443;DHT22;5269;51.146;16.986;2023-08-08T08:45:59;17.70;99.90
10443;DHT22;5269;51.146;16.986;2023-08-08T08:48:36;17.60;99.90
10443;DHT22;5269;51.146;16.986;2023-08-08T08:51:06;17.60;99.90
10443;DHT22;5269;51.146;16.986;2023-08-08T08:53:35;17.60;99.90
10443;DHT22;5269;51.146;16.986;2023-08-08T08:56:07;18.00;99.90
10443;DHT22;5269;51.146;16.986;2023-08-08T08:58:39;18.20;99.90
10443;DHT22;5269;51.146;16.986;2023-08-08T09:01:17;18.20;99.90
10443;DHT22;5269;51.146;16.986;2023-08-08T09:03:47;18.20;99.90
10443;DHT22;5269;51.146;16.986;2023-08-08T09:06:17;18.00;99.90
10443;DHT22;5269;51.146;16.986;2023-08-08T09:08:48;18.10;99.90
10443;DHT22;5269;51.146;16.986;2023-08-08T09:11:35;18.00;99.90
10443;DHT22;5269;51.146;16.986;2023-08-08T09:14:18;18.40;99.90
10443;DHT22;5269;51.146;16.986;2023-08-08T09:16:46;18.30;99.90
10443;DHT22;5269;51.146;16.986;2023-08-08T09:19:16;18.30;99.90
10443;DHT22;5269;51.146;16.986;2023-08-08T09:21:46;18.30;99.90
10443;DHT22;5269;51.146;16.986;2023-08-08T09:24:16;18.30;99.90
10443;DHT22;5269;51.146;16.986;2023-08-08T09:26:47;18.40;99.90
10443;DHT22;5269;51.146;16.986;2023-08-08T09:29:19;18.40;99.90
10443;DHT22;5269;51.146;16.986;2023-08-08T09:31:57;18.30;99.90
10443;DHT22;5269;51.146;16.986;2023-08-08T09:34:40;18.40;99.90
10443;DHT22;5269;51.146;16.986;2023-08-08T09:37:18;18.50;99.90
10443;DHT22;5269;51.146;16.986;2023-08-08T09:39:45;18.70;99.90
10443;DHT22;5269;51.146;16.986;2023-08-08T09:42:19;18.80;99.90
10443;DHT22;5269;51.146;16.986;2023-08-08T09:44:59;18.90;99.90
10443;DHT22;5269;51.146;16.986;2023-08-08T09:47:37;19.00;99.90
10443;DHT22;5269;51.146;16.986;2023-08-08T09:50:06;19.00;99.90
10443;DHT22;5269;51.146;16.986;2023-08-08T09:52:36;18.90;99.90
10443;DHT22;5269;51.146;16.986;2023-08-08T09:55:07;18.70;99.90
10443;DHT22;5269;51.146;16.986;2023-08-08T09:57:38;18.60;99.90
10443;DHT22;5269;51.146;16.986;2023-08-08T10:00:18;18.60;99.90
10443;DHT22;5269;51.146;16.986;2023-08-08T10:02:47;18.50;99.90
10443;DHT22;5269;51.146;16.986;2023-08-08T10:05:16;18.40;99.90
10443;DHT22;5269;51.146;16.986;2023-08-08T10:07:57;18.60;99.90
10443;DHT22;5269;51.146;16.986;2023-08-08T10:10:36;18.50;99.90
10443;DHT22;5269;51.146;16.986;2023-08-08T10:16:46;18.40;99.90
10443;DHT22;5269;51.146;16.986;2023-08-08T10:19:58;18.60;99.90
10443;DHT22;5269;51.146;16.986;2023-08-08T10:22:29;18.80;99.90
10443;DHT22;5269;51.146;16.986;2023-08-08T10:31:18;18.70;99.90
10443;DHT22;5269;51.146;16.986;2023-08-08T10:40:48;18.80;99.90
10443;DHT22;5269;51.146;16.986;2023-08-08T10:46:49;19.30;99.90
10443;DHT22;5269;51.146;16.986;2023-08-08T10:52:56;18.80;99.90
10443;DHT22;5269;51.146;16.986;2023-08-08T10:55:31;18.70;99.90
10443;DHT22;5269;51.146;16.986;2023-08-08T10:58:17;18.50;99.90
10443;DHT22;5269;51.146;16.986;2023-08-08T11:00:57;18.40;99.90
10443;DHT22;5269;51.146;16.986;2023-08-08T11:03:26;18.50;99.90
10443;DHT22;5269;51.146;16.986;2023-08-08T11:06:19;18.50;99.90
10443;DHT22;5269;51.146;16.986;2023-08-08T11:09:08;18.60;99.90
10443;DHT22;5269;51.146;16.986;2023-08-08T11:11:49;18.70;99.90
10443;DHT22;5269;51.146;16.986;2023-08-08T11:20:59;18.60;99.90
10443;DHT22;5269;51.146;16.986;2023-08-08T11:23:58;18.80;99.90
10443;DHT22;5269;51.146;16.986;2023-08-08T11:26:59;19.10;99.90
10443;DHT22;5269;51.146;16.986;2023-08-08T11:29:56;19.20;99.90
10443;DHT22;5269;51.146;16.986;2023-08-08T11:32:39;19.10;99.90
10443;DHT22;5269;51.146;16.986;2023-08-08T11:35:59;19.30;99.90
10443;DHT22;5269;51.146;16.986;2023-08-08T11:41:39;19.50;99.90
10443;DHT22;5269;51.146;16.986;2023-08-08T11:44:49;19.30;99.90
10443;DHT22;5269;51.146;16.986;2023-08-08T11:47:17;19.20;99.90
10443;DHT22;5269;51.146;16.986;2023-08-08T11:49:47;19.20;99.90
10443;DHT22;5269;51.146;16.986;2023-08-08T11:52:20;19.30;99.90
10443;DHT22;5269;51.146;16.986;2023-08-08T11:54:57;19.40;99.90
10443;DHT22;5269;51.146;16.986;2023-08-08T11:57:27;19.70;99.90
10443;DHT22;5269;51.146;16.986;2023-08-08T11:59:58;19.60;99.90
10443;DHT22;5269;51.146;16.986;2023-08-08T12:02:30;19.40;99.90
10443;DHT22;5269;51.146;16.986;2023-08-08T12:05:11;19.70;99.90
10443;DHT22;5269;51.146;16.986;2023-08-08T12:07:47;19.90;99.90
10443;DHT22;5269;51.146;16.986;2023-08-08T12:10:19;20.10;99.90
10443;DHT22;5269;51.146;16.986;2023-08-08T12:13:00;20.30;99.90
10443;DHT22;5269;51.146;16.986;2023-08-08T12:15:38;19.90;99.90
10443;DHT22;5269;51.146;16.986;2023-08-08T12:18:07;20.00;99.90
10443;DHT22;5269;51.146;16.986;2023-08-08T12:20:36;20.20;99.90
10443;DHT22;5269;51.146;16.986;2023-08-08T12:23:09;20.30;99.90
10443;DHT22;5269;51.146;16.986;2023-08-08T12:25:57;20.30;99.90
10443;DHT22;5269;51.146;16.986;2023-08-08T12:28:37;20.30;99.90
10443;DHT22;5269;51.146;16.986;2023-08-08T12:31:06;20.20;99.90
10443;DHT22;5269;51.146;16.986;2023-08-08T12:33:38;20.00;99.90
10443;DHT22;5269;51.146;16.986;2023-08-08T12:36:09;19.90;99.90
10443;DHT22;5269;51.146;16.986;2023-08-08T12:38:48;20.10;99.90
10443;DHT22;5269;51.146;16.986;2023-08-08T12:41:17;19.90;99.90
10443;DHT22;5269;51.146;16.986;2023-08-08T12:43:47;19.80;99.90
10443;DHT22;5269;51.146;16.986;2023-08-08T12:46:18;19.60;99.90
10443;DHT22;5269;51.146;16.986;2023-08-08T12:48:47;19.60;99.90
10443;DHT22;5269;51.146;16.986;2023-08-08T12:51:16;19.60;99.90
10443;DHT22;5269;51.146;16.986;2023-08-08T12:53:50;19.70;99.90
10443;DHT22;5269;51.146;16.986;2023-08-08T12:56:27;19.60;99.90
10443;DHT22;5269;51.146;16.986;2023-08-08T12:58:56;19.50;99.90
10443;DHT22;5269;51.146;16.986;2023-08-08T13:01:28;19.60;99.90
10443;DHT22;5269;51.146;16.986;2023-08-08T13:04:08;19.70;99.90
10443;DHT22;5269;51.146;16.986;2023-08-08T13:06:48;19.70;99.90
10443;DHT22;5269;51.146;16.986;2023-08-08T13:09:18;19.80;99.90
10443;DHT22;5269;51.146;16.986;2023-08-08T13:11:47;19.70;99.90
10443;DHT22;5269;51.146;16.986;2023-08-08T13:14:17;19.60;99.90
10443;DHT22;5269;51.146;16.986;2023-08-08T13:16:48;19.50;99.90
10443;DHT22;5269;51.146;16.986;2023-08-08T13:19:27;19.60;99.90
10443;DHT22;5269;51.146;16.986;2023-08-08T13:21:57;19.70;99.90
10443;DHT22;5269;51.146;16.986;2023-08-08T13:24:26;20.00;99.90
10443;DHT22;5269;51.146;16.986;2023-08-08T13:26:56;20.10;99.90
10443;DHT22;5269;51.146;16.986;2023-08-08T13:29:29;20.30;99.90
10443;DHT22;5269;51.146;16.986;2023-08-08T13:32:08;20.60;99.90
10443;DHT22;5269;51.146;16.986;2023-08-08T13:34:40;20.50;99.90
10443;DHT22;5269;51.146;16.986;2023-08-08T13:37:18;20.60;99.90
10443;DHT22;5269;51.146;16.986;2023-08-08T13:39:49;20.50;99.90
10443;DHT22;5269;51.146;16.986;2023-08-08T13:42:16;20.40;99.90
10443;DHT22;5269;51.146;16.986;2023-08-08T13:44:48;20.30;99.90
10443;DHT22;5269;51.146;16.986;2023-08-08T13:47:17;20.10;99.90
10443;DHT22;5269;51.146;16.986;2023-08-08T13:49:49;20.00;99.90
10443;DHT22;5269;51.146;16.986;2023-08-08T13:52:16;20.00;99.90
10443;DHT22;5269;51.146;16.986;2023-08-08T13:54:46;20.10;99.90
10443;DHT22;5269;51.146;16.986;2023-08-08T13:57:19;20.20;99.90
10443;DHT22;5269;51.146;16.986;2023-08-08T13:59:47;20.20;99.90
10443;DHT22;5269;51.146;16.986;2023-08-08T14:02:20;20.10;99.90
10443;DHT22;5269;51.146;16.986;2023-08-08T14:04:57;20.10;99.90
10443;DHT22;5269;51.146;16.986;2023-08-08T14:07:28;20.10;99.90
10443;DHT22;5269;51.146;16.986;2023-08-08T14:10:00;20.30;99.90
10443;DHT22;5269;51.146;16.986;2023-08-08T14:12:48;20.40;99.90
10443;DHT22;5269;51.146;16.986;2023-08-08T14:15:17;20.70;99.90
10443;DHT22;5269;51.146;16.986;2023-08-08T14:17:55;21.20;99.90
10443;DHT22;5269;51.146;16.986;2023-08-08T14:20:29;21.10;99.90
10443;DHT22;5269;51.146;16.986;2023-08-08T14:22:59;21.00;99.90
10443;DHT22;5269;51.146;16.986;2023-08-08T14:25:26;20.90;99.90
10443;DHT22;5269;51.146;16.986;2023-08-08T14:27:57;20.90;99.90
10443;DHT22;5269;51.146;16.986;2023-08-08T14:30:26;20.80;99.90
10443;DHT22;5269;51.146;16.986;2023-08-08T14:32:59;20.80;99.90
10443;DHT22;5269;51.146;16.986;2023-08-08T14:35:37;20.60;99.90
10443;DHT22;5269;51.146;16.986;2023-08-08T14:38:07;21.00;99.90
10443;DHT22;5269;51.146;16.986;2023-08-08T14:40:40;20.90;99.90
10443;DHT22;5269;51.146;16.986;2023-08-08T14:43:19;20.90;99.90
10443;DHT22;5269;51.146;16.986;2023-08-08T14:46:00;20.90;99.90
10443;DHT22;5269;51.146;16.986;2023-08-08T14:48:35;20.90;99.90
10443;DHT22;5269;51.146;16.986;2023-08-08T14:51:10;20.80;99.90
10443;DHT22;5269;51.146;16.986;2023-08-08T14:53:47;20.80;99.90
10443;DHT22;5269;51.146;16.986;2023-08-08T14:56:20;20.90;99.90
10443;DHT22;5269;51.146;16.986;2023-08-08T14:58:59;21.10;99.90
10443;DHT22;5269;51.146;16.986;2023-08-08T15:01:38;21.10;99.90
10443;DHT22;5269;51.146;16.986;2023-08-08T15:04:07;21.20;99.90
10443;DHT22;5269;51.146;16.986;2023-08-08T15:06:38;21.60;99.90
10443;DHT22;5269;51.146;16.986;2023-08-08T15:09:17;22.00;99.90
10443;DHT22;5269;51.146;16.986;2023-08-08T15:11:47;22.00;99.90
10443;DHT22;5269;51.146;16.986;2023-08-08T15:14:17;22.10;99.90
10443;DHT22;5269;51.146;16.986;2023-08-08T15:16:48;22.00;99.90
10443;DHT22;5269;51.146;16.986;2023-08-08T15:19:18;21.90;99.90
10443;DHT22;5269;51.146;16.986;2023-08-08T15:21:48;21.60;99.90
10443;DHT22;5269;51.146;16.986;2023-08-08T15:24:18;21.40;99.90
10443;DHT22;5269;51.146;16.986;2023-08-08T15:26:49;21.30;99.90
10443;DHT22;5269;51.146;16.986;2023-08-08T15:29:18;21.20;99.90
10443;DHT22;5269;51.146;16.986;2023-08-08T15:31:47;20.90;99.90
10443;DHT22;5269;51.146;16.986;2023-08-08T15:34:20;20.80;99.90
10443;DHT22;5269;51.146;16.986;2023-08-08T15:37:18;20.70;99.90
10443;DHT22;5269;51.146;16.986;2023-08-08T15:39:47;20.50;99.90
10443;DHT22;5269;51.146;16.986;2023-08-08T15:42:20;20.40;99.90
10443;DHT22;5269;51.146;16.986;2023-08-08T15:44:59;20.40;99.90
10443;DHT22;5269;51.146;16.986;2023-08-08T15:47:27;20.30;99.90
10443;DHT22;5269;51.146;16.986;2023-08-08T15:49:58;20.30;99.90
10443;DHT22;5269;51.146;16.986;2023-08-08T15:52:40;20.50;99.90
10443;DHT22;5269;51.146;16.986;2023-08-08T15:55:27;20.60;99.90
10443;DHT22;5269;51.146;16.986;2023-08-08T15:58:08;20.50;99.90
10443;DHT22;5269;51.146;16.986;2023-08-08T16:00:37;20.50;99.90
10443;DHT22;5269;51.146;16.986;2023-08-08T16:03:10;20.50;99.90
10443;DHT22;5269;51.146;16.986;2023-08-08T16:05:59;20.50;99.90
10443;DHT22;5269;51.146;16.986;2023-08-08T16:08:37;20.30;99.90
10443;DHT22;5269;51.146;16.986;2023-08-08T16:11:10;20.10;99.90
10443;DHT22;5269;51.146;16.986;2023-08-08T16:13:49;20.00;99.90
10443;DHT22;5269;51.146;16.986;2023-08-08T16:16:20;20.20;99.90
10443;DHT22;5269;51.146;16.986;2023-08-08T16:18:56;20.60;99.90
10443;DHT22;5269;51.146;16.986;2023-08-08T16:21:29;20.10;99.90
10443;DHT22;5269;51.146;16.986;2023-08-08T16:24:17;19.90;99.90
10443;DHT22;5269;51.146;16.986;2023-08-08T16:26:50;19.70;99.90
10443;DHT22;5269;51.146;16.986;2023-08-08T16:29:37;19.50;99.90
10443;DHT22;5269;51.146;16.986;2023-08-08T16:32:07;19.60;99.90
10443;DHT22;5269;51.146;16.986;2023-08-08T16:34:38;19.50;99.90
10443;DHT22;5269;51.146;16.986;2023-08-08T16:37:08;19.90;99.90
10443;DHT22;5269;51.146;16.986;2023-08-08T16:39:37;20.20;99.90
10443;DHT22;5269;51.146;16.986;2023-08-08T16:42:07;20.20;99.90
10443;DHT22;5269;51.146;16.986;2023-08-08T16:44:38;20.00;99.90
10443;DHT22;5269;51.146;16.986;2023-08-08T16:47:09;19.90;99.90
10443;DHT22;5269;51.146;16.986;2023-08-08T16:49:39;20.00;99.90
10443;DHT22;5269;51.146;16.986;2023-08-08T16:52:09;20.10;99.90
10443;DHT22;5269;51.146;16.986;2023-08-08T16:58:38;20.30;99.90
10443;DHT22;5269;51.146;16.986;2023-08-08T17:01:19;20.30;99.90
10443;DHT22;5269;51.146;16.986;2023-08-08T17:03:48;20.30;99.90
10443;DHT22;5269;51.146;16.986;2023-08-08T17:06:18;20.30;99.90
10443;DHT22;5269;51.146;16.986;2023-08-08T17:09:08;20.20;99.90
10443;DHT22;5269;51.146;16.986;2023-08-08T17:11:38;20.30;99.90
10443;DHT22;5269;51.146;16.986;2023-08-08T17:14:17;20.20;99.90
10443;DHT22;5269;51.146;16.986;2023-08-08T17:16:47;20.10;99.90
10443;DHT22;5269;51.146;16.986;2023-08-08T17:19:27;20.10;99.90